Time;durP1;ratioP1;P1;durP2;ratioP2;P2;SDS_P1;SDS_P2;PMS_P1;PMS_P2;Temp;Humidity;BMP_temperature;BMP_pressure;BME280_temperature;BME280_humidity;BME280_pressure;Samples;Min_cycle;Max_cycle;Signal;HPM_P1;HPM_P2
2022/06/24 00:02:09;;;;;;;145.40;135.10;;;24.50;52.30;;;;;;5014562;28;20497;-72
2022/06/24 00:04:36;;;;;;;144.07;133.68;;;24.50;51.70;;;;;;5016812;28;20161;-72
2022/06/24 00:07:14;;;;;;;147.32;136.73;;;24.40;51.80;;;;;;5032973;28;20050;-72
2022/06/24 00:09:43;;;;;;;146.48;135.57;;;24.40;51.80;;;;;;5033519;28;20061;-72
2022/06/24 00:12:12;;;;;;;144.00;133.63;;;24.40;52.50;;;;;;5034621;28;20093;-72
2022/06/24 00:14:42;;;;;;;144.70;134.10;;;24.40;52.10;;;;;;5033484;28;20502;-72
2022/06/24 00:17:10;;;;;;;147.75;137.10;;;24.30;51.90;;;;;;5033383;28;20086;-72
2022/06/24 00:19:53;;;;;;;144.73;134.25;;;24.30;52.10;;;;;;5032925;28;20045;-73
2022/06/24 00:22:20;;;;;;;144.52;134.02;;;24.20;51.60;;;;;;5033263;28;20048;-72
2022/06/24 00:24:49;;;;;;;144.15;133.75;;;24.20;52.30;;;;;;5033345;28;20060;-72
2022/06/24 00:27:22;;;;;;;145.48;134.93;;;24.10;52.30;;;;;;5034361;28;20049;-72
2022/06/24 00:29:50;;;;;;;145.00;134.45;;;24.10;51.90;;;;;;5033186;28;20531;-72
2022/06/24 00:32:29;;;;;;;145.30;134.48;;;24.00;51.60;;;;;;5034232;28;20054;-72
2022/06/24 00:35:03;;;;;;;145.52;134.95;;;24.00;51.60;;;;;;5021760;28;20078;-72
2022/06/24 00:37:31;;;;;;;145.18;134.57;;;23.90;51.80;;;;;;5014207;28;20082;-72
2022/06/24 00:40:20;;;;;;;146.25;135.75;;;23.90;52.20;;;;;;5013790;28;20054;-72
2022/06/24 00:42:49;;;;;;;148.00;135.48;;;23.90;52.70;;;;;;5012855;28;20628;-72
2022/06/24 00:45:25;;;;;;;145.05;133.38;;;23.80;52.40;;;;;;5012574;28;20054;-72
2022/06/24 00:47:52;;;;;;;152.57;141.73;;;23.80;52.20;;;;;;5012825;28;20093;-72
2022/06/24 00:50:23;;;;;;;145.82;135.55;;;23.80;52.40;;;;;;5013071;28;20125;-72
2022/06/24 00:52:53;;;;;;;146.95;136.48;;;23.70;52.50;;;;;;5013672;28;20144;-72
2022/06/24 00:55:25;;;;;;;147.65;137.20;;;23.70;52.90;;;;;;5013039;28;20054;-72
2022/06/24 00:57:52;;;;;;;148.95;138.45;;;23.60;52.80;;;;;;5011684;28;20058;-72
2022/06/24 01:00:20;;;;;;;148.20;137.70;;;23.50;52.90;;;;;;5012487;28;20053;-72
2022/06/24 01:02:48;;;;;;;144.88;134.10;;;23.50;52.70;;;;;;5013095;28;20082;-72
2022/06/24 01:05:18;;;;;;;148.57;137.82;;;23.40;52.70;;;;;;5012232;28;20055;-72
2022/06/24 01:07:45;;;;;;;147.90;137.00;;;23.30;52.80;;;;;;5010596;28;20076;-72
2022/06/24 01:10:12;;;;;;;148.80;138.10;;;23.30;52.70;;;;;;5010517;28;20146;-72
2022/06/24 01:12:40;;;;;;;145.93;135.32;;;23.20;53.10;;;;;;5012037;28;20141;-72
2022/06/24 01:15:08;;;;;;;145.98;135.57;;;23.20;53.20;;;;;;5011545;28;20050;-72
2022/06/24 01:17:36;;;;;;;146.05;135.60;;;23.10;53.00;;;;;;5013234;28;20133;-72
2022/06/24 01:20:04;;;;;;;149.25;138.50;;;23.10;52.80;;;;;;5013383;28;20599;-72
2022/06/24 01:22:32;;;;;;;146.55;135.90;;;23.00;53.20;;;;;;5012528;28;20049;-72
2022/06/24 01:24:59;;;;;;;146.80;136.20;;;23.00;53.50;;;;;;5013430;28;20535;-72
2022/06/24 01:27:26;;;;;;;145.02;134.65;;;22.90;53.50;;;;;;5011607;28;20146;-72
2022/06/24 01:29:54;;;;;;;146.45;135.80;;;22.90;53.40;;;;;;5012140;28;20555;-72
2022/06/24 01:32:21;;;;;;;143.52;133.23;;;22.90;53.30;;;;;;5012721;28;20125;-72
2022/06/24 01:34:48;;;;;;;147.13;136.55;;;22.90;53.40;;;;;;5012330;28;20051;-72
2022/06/24 01:37:15;;;;;;;147.75;137.18;;;22.90;53.40;;;;;;5012958;28;20054;-72
2022/06/24 01:39:44;;;;;;;143.00;132.50;;;22.80;53.20;;;;;;5013201;28;20133;-72
2022/06/24 01:42:11;;;;;;;144.27;133.35;;;22.80;52.90;;;;;;5011003;28;20054;-72
2022/06/24 01:44:38;;;;;;;143.73;133.40;;;22.70;52.90;;;;;;5031735;28;20074;-72
2022/06/24 01:47:05;;;;;;;143.20;132.80;;;22.60;53.10;;;;;;5031441;28;20530;-72
2022/06/24 01:49:32;;;;;;;144.00;133.40;;;22.50;53.20;;;;;;5033001;28;20049;-72
2022/06/24 01:51:59;;;;;;;141.32;131.00;;;22.50;53.30;;;;;;5031491;28;20060;-72
2022/06/24 01:54:26;;;;;;;142.63;131.82;;;22.40;53.50;;;;;;5031290;28;20046;-72
2022/06/24 01:56:55;;;;;;;142.75;132.25;;;22.40;53.60;;;;;;5031436;28;20136;-73
2022/06/24 01:59:22;;;;;;;140.57;130.30;;;22.30;53.70;;;;;;5031450;28;20435;-72
2022/06/24 02:01:49;;;;;;;141.27;130.68;;;22.30;54.20;;;;;;5031775;28;20049;-72
2022/06/24 02:04:16;;;;;;;141.40;131.05;;;22.30;54.60;;;;;;5031208;28;20137;-72
2022/06/24 02:06:43;;;;;;;141.48;131.07;;;22.30;54.90;;;;;;5032564;28;20544;-72
2022/06/24 02:09:10;;;;;;;140.50;130.25;;;22.30;55.10;;;;;;5031037;28;20126;-72
2022/06/24 02:14:24;;;;;;;138.38;127.88;;;22.20;55.40;;;;;;5029096;28;20813;-72
2022/06/24 02:16:52;;;;;;;141.50;130.55;;;22.20;55.50;;;;;;5031208;28;20509;-72
2022/06/24 02:19:19;;;;;;;137.52;127.07;;;22.10;55.70;;;;;;5014785;28;20136;-72
2022/06/24 02:21:46;;;;;;;139.27;128.77;;;22.10;56.20;;;;;;5031152;28;20128;-72
2022/06/24 02:24:15;;;;;;;140.13;129.77;;;22.00;56.60;;;;;;5032148;28;20052;-72
2022/06/24 02:26:43;;;;;;;140.63;130.00;;;22.00;56.90;;;;;;5030795;28;20050;-72
2022/06/24 02:29:10;;;;;;;140.43;129.93;;;21.90;56.70;;;;;;5030549;28;20114;-72
2022/06/24 02:31:39;;;;;;;139.38;129.07;;;21.90;56.70;;;;;;5014177;28;20128;-72
2022/06/24 02:34:06;;;;;;;140.90;130.27;;;21.90;58.20;;;;;;5030693;28;20524;-72
2022/06/24 02:36:32;;;;;;;140.50;130.10;;;21.80;58.00;;;;;;5030532;28;20133;-72
2022/06/24 02:38:59;;;;;;;140.27;129.88;;;21.80;58.20;;;;;;5030884;28;20050;-72
2022/06/24 02:41:26;;;;;;;139.35;128.73;;;21.80;58.00;;;;;;5030978;28;20136;-72
2022/06/24 02:43:53;;;;;;;140.27;129.48;;;21.80;58.40;;;;;;5029032;28;20587;-73
2022/06/24 02:46:20;;;;;;;141.00;130.05;;;21.80;58.40;;;;;;5031787;28;20053;-72
2022/06/24 02:48:48;;;;;;;191.40;135.40;;;21.80;58.50;;;;;;5029450;28;20054;-72
2022/06/24 02:51:16;;;;;;;146.10;131.23;;;21.80;58.70;;;;;;5032200;28;20605;-72
2022/06/24 02:53:43;;;;;;;144.32;130.77;;;21.70;58.80;;;;;;5029921;28;20544;-72
2022/06/24 02:56:13;;;;;;;138.93;128.07;;;21.70;59.40;;;;;;5032048;28;20058;-72
2022/06/24 02:58:41;;;;;;;137.95;127.50;;;21.70;59.30;;;;;;5031664;28;20109;-72
2022/06/24 03:01:08;;;;;;;137.10;126.40;;;21.60;58.90;;;;;;5031886;28;20136;-72
2022/06/24 03:03:36;;;;;;;135.05;124.63;;;21.60;58.10;;;;;;5030422;28;20134;-72
2022/06/24 03:06:04;;;;;;;138.77;128.43;;;21.50;57.10;;;;;;5030563;28;20128;-72
2022/06/24 03:08:31;;;;;;;141.95;130.63;;;21.50;57.50;;;;;;5030438;28;20535;-72
2022/06/24 03:10:59;;;;;;;142.70;130.65;;;21.40;58.50;;;;;;5030894;28;20060;-72
2022/06/24 03:13:26;;;;;;;141.23;129.77;;;21.40;59.20;;;;;;5031528;28;20281;-72
2022/06/24 03:15:53;;;;;;;143.93;132.48;;;21.40;59.80;;;;;;5032003;28;20058;-72
2022/06/24 03:18:20;;;;;;;142.13;130.45;;;21.40;60.10;;;;;;5032001;28;20064;-72
2022/06/24 03:20:48;;;;;;;141.40;129.70;;;21.30;60.30;;;;;;5028937;28;20053;-72
2022/06/24 03:23:17;;;;;;;141.45;130.55;;;21.30;60.40;;;;;;5030320;28;20050;-72
2022/06/24 03:25:44;;;;;;;141.93;130.80;;;21.40;60.20;;;;;;5013885;28;20480;-72
2022/06/24 03:28:11;;;;;;;142.63;131.82;;;21.30;60.20;;;;;;5031411;28;20428;-72
2022/06/24 03:30:38;;;;;;;140.48;129.00;;;21.30;60.70;;;;;;5030894;28;20540;-72
2022/06/24 03:33:06;;;;;;;136.57;125.13;;;21.40;60.90;;;;;;5031531;28;20054;-72
2022/06/24 03:35:33;;;;;;;136.10;125.40;;;21.40;61.20;;;;;;5030371;28;20054;-72
2022/06/24 03:38:00;;;;;;;139.10;128.32;;;21.40;61.30;;;;;;5013594;28;20487;-72
2022/06/24 03:40:28;;;;;;;135.68;124.70;;;21.30;61.40;;;;;;5030461;28;20073;-72
2022/06/24 03:42:55;;;;;;;141.80;130.57;;;21.40;62.20;;;;;;5030213;28;20058;-72
2022/06/24 03:45:22;;;;;;;140.57;129.05;;;21.40;62.70;;;;;;5030499;28;20049;-72
2022/06/24 03:47:49;;;;;;;141.32;130.32;;;21.40;63.00;;;;;;5031255;28;20085;-72
2022/06/24 03:50:16;;;;;;;141.40;130.52;;;21.40;62.80;;;;;;5030325;28;20141;-72
2022/06/24 03:52:43;;;;;;;141.52;130.30;;;21.40;62.70;;;;;;5028981;28;20115;-72
2022/06/24 03:55:10;;;;;;;139.52;128.85;;;21.40;62.40;;;;;;5015934;28;20156;-72
2022/06/24 03:57:39;;;;;;;140.30;129.38;;;21.30;62.60;;;;;;5023366;28;20046;-72
2022/06/24 04:00:08;;;;;;;139.73;129.20;;;21.30;62.30;;;;;;5022182;28;20137;-72
2022/06/24 04:02:38;;;;;;;139.15;128.27;;;21.30;61.50;;;;;;5018538;28;20472;-72
2022/06/24 04:05:07;;;;;;;141.23;130.25;;;21.30;60.70;;;;;;5013837;28;20142;-72
2022/06/24 04:07:34;;;;;;;139.98;129.18;;;21.30;61.80;;;;;;5013528;28;20054;-72
2022/06/24 04:10:01;;;;;;;139.95;129.18;;;21.30;62.20;;;;;;5013349;28;20428;-72
2022/06/24 04:12:28;;;;;;;141.48;130.77;;;21.30;61.80;;;;;;5014663;28;20148;-72
2022/06/24 04:15:14;;;;;;;140.55;129.68;;;21.20;60.90;;;;;;4997065;28;20481;-72
2022/06/24 04:17:42;;;;;;;137.65;126.88;;;21.20;60.50;;;;;;5013065;28;20046;-72
2022/06/24 04:20:10;;;;;;;138.68;127.97;;;21.20;60.00;;;;;;5013025;28;20051;-72
2022/06/24 04:22:37;;;;;;;139.20;128.48;;;21.20;59.70;;;;;;5013116;28;20167;-72
2022/06/24 04:25:05;;;;;;;142.52;131.82;;;21.20;60.00;;;;;;5014168;28;20058;-72
2022/06/24 04:27:32;;;;;;;141.57;131.07;;;21.20;60.10;;;;;;5006778;28;20046;-72
2022/06/24 04:30:01;;;;;;;139.02;128.27;;;21.20;60.00;;;;;;5033529;28;20141;-72
2022/06/24 04:32:28;;;;;;;148.68;136.52;;;21.20;60.50;;;;;;5032476;28;20052;-72
2022/06/24 04:34:55;;;;;;;148.57;137.18;;;21.20;61.30;;;;;;5032443;28;20050;-72
2022/06/24 04:37:22;;;;;;;149.18;137.73;;;21.20;63.60;;;;;;5033592;28;20141;-72
2022/06/24 04:39:49;;;;;;;152.90;140.43;;;21.20;66.50;;;;;;5016083;28;20056;-72
2022/06/24 04:42:16;;;;;;;150.38;138.57;;;21.30;71.10;;;;;;5032417;28;20456;-72
2022/06/24 04:44:43;;;;;;;146.50;134.93;;;21.30;76.20;;;;;;5031837;28;20053;-73
2022/06/24 04:47:11;;;;;;;146.90;135.45;;;21.40;83.00;;;;;;5016610;28;20134;-72
2022/06/24 04:49:38;;;;;;;141.50;130.40;;;21.40;87.70;;;;;;5013469;28;20097;-72
2022/06/24 04:52:06;;;;;;;141.77;130.70;;;21.40;90.10;;;;;;4996421;28;20054;-72
2022/06/24 04:54:33;;;;;;;141.18;129.93;;;21.50;91.10;;;;;;4995605;28;20137;-72
2022/06/24 04:57:00;;;;;;;142.38;131.07;;;21.50;91.70;;;;;;5012298;28;20054;-72
2022/06/24 04:59:27;;;;;;;145.10;133.40;;;21.50;92.10;;;;;;5011141;28;20130;-74
2022/06/24 05:01:54;;;;;;;134.30;123.50;;;21.50;92.10;;;;;;5020295;28;20077;-74
2022/06/24 05:04:22;;;;;;;137.77;127.10;;;21.50;92.60;;;;;;5006459;28;20080;-73
2022/06/24 05:06:49;;;;;;;137.95;127.25;;;21.60;92.90;;;;;;5029776;28;20046;-74
2022/06/24 05:09:17;;;;;;;138.57;127.68;;;21.60;93.10;;;;;;5028103;28;20224;-73
2022/06/24 05:11:45;;;;;;;141.05;129.93;;;21.60;93.40;;;;;;5028914;28;20088;-73
2022/06/24 05:14:13;;;;;;;137.27;126.40;;;21.60;93.50;;;;;;5028343;28;20046;-73
2022/06/24 05:16:40;;;;;;;138.35;127.43;;;21.50;93.60;;;;;;5024036;28;20050;-73
2022/06/24 05:19:08;;;;;;;137.65;126.60;;;21.50;93.80;;;;;;5025888;28;20144;-73
2022/06/24 05:21:36;;;;;;;135.77;124.88;;;21.50;93.90;;;;;;5022664;28;20051;-74
2022/06/24 05:24:03;;;;;;;136.02;124.78;;;21.50;93.90;;;;;;5020442;28;20095;-73
2022/06/24 05:26:30;;;;;;;135.65;124.85;;;21.50;93.90;;;;;;5021263;28;20141;-73
2022/06/24 05:28:57;;;;;;;136.85;126.05;;;21.50;94.00;;;;;;5022574;28;20552;-73
2022/06/24 05:31:24;;;;;;;138.82;127.68;;;21.60;94.10;;;;;;5021352;28;20551;-76
2022/06/24 05:33:51;;;;;;;137.38;126.25;;;21.60;94.20;;;;;;5018270;28;20373;-72
2022/06/24 05:36:18;;;;;;;139.85;128.70;;;21.60;94.00;;;;;;5028923;28;20057;-82
2022/06/24 05:38:47;;;;;;;141.18;129.88;;;21.60;94.30;;;;;;5029585;28;20801;-73
2022/06/24 05:41:14;;;;;;;140.23;128.90;;;21.60;94.40;;;;;;5029575;28;20137;-75
2022/06/24 05:43:41;;;;;;;139.80;128.50;;;21.60;94.40;;;;;;5031283;28;20061;-76
2022/06/24 05:46:08;;;;;;;138.57;127.70;;;21.70;94.50;;;;;;5030573;28;20600;-73
2022/06/24 05:48:34;;;;;;;139.40;128.40;;;21.70;94.40;;;;;;5032897;28;20108;-72
2022/06/24 05:51:08;;;;;;;138.15;127.35;;;21.70;94.50;;;;;;5030802;28;20060;-74
2022/06/24 05:56:20;;;;;;;137.98;127.22;;;21.70;94.60;;;;;;5032821;28;20496;-75
2022/06/24 05:58:47;;;;;;;376.75;345.77;;;21.70;94.70;;;;;;5029814;28;20582;-81
2022/06/24 06:01:14;;;;;;;591.30;548.33;;;21.80;94.70;;;;;;5029926;28;20520;-74
2022/06/24 06:03:41;;;;;;;214.90;196.52;;;21.80;94.60;;;;;;5030003;28;20563;-76
2022/06/24 06:06:09;;;;;;;169.77;155.60;;;21.80;94.50;;;;;;5029875;28;20054;-72
2022/06/24 06:08:36;;;;;;;243.68;223.18;;;21.80;94.50;;;;;;5021215;28;20129;-74
2022/06/24 06:11:11;;;;;;;224.73;205.82;;;21.80;94.50;;;;;;5009939;28;20133;-73
2022/06/24 06:13:39;;;;;;;277.33;254.20;;;21.90;94.60;;;;;;5010621;28;20077;-73
2022/06/24 06:16:06;;;;;;;220.85;202.65;;;21.90;94.70;;;;;;5024004;28;20124;-77
2022/06/24 06:18:33;;;;;;;236.70;217.10;;;21.90;94.60;;;;;;5031020;28;20053;-77
2022/06/24 06:21:01;;;;;;;197.40;181.10;;;21.90;94.70;;;;;;5031607;28;20456;-79
2022/06/24 06:23:29;;;;;;;237.38;217.73;;;21.90;94.70;;;;;;5029232;28;20054;-76
2022/06/24 06:25:56;;;;;;;307.95;282.20;;;22.00;94.60;;;;;;4987582;28;20049;-74
2022/06/24 06:28:23;;;;;;;236.30;216.52;;;22.00;94.50;;;;;;4993257;28;20554;-75
2022/06/24 06:30:51;;;;;;;244.05;223.43;;;22.00;94.50;;;;;;5022599;28;20157;-77
2022/06/24 06:33:18;;;;;;;203.40;185.68;;;22.00;94.50;;;;;;5020788;28;20053;-73
2022/06/24 06:35:46;;;;;;;188.65;173.05;;;22.00;94.40;;;;;;5050823;22;20524;-73
2022/06/24 06:38:13;;;;;;;208.60;191.40;;;22.00;94.40;;;;;;5010549;28;20802;-74
2022/06/24 06:40:40;;;;;;;259.30;237.57;;;22.00;94.40;;;;;;5024720;28;20090;-71
2022/06/24 06:43:07;;;;;;;167.73;153.52;;;22.00;94.40;;;;;;5004059;28;20075;-72
2022/06/24 06:45:34;;;;;;;172.63;157.93;;;22.10;94.40;;;;;;5023453;28;20046;-72
2022/06/24 06:48:03;;;;;;;171.50;156.90;;;22.10;94.30;;;;;;5023170;28;20046;-72
2022/06/24 06:50:30;;;;;;;162.30;148.70;;;22.10;94.40;;;;;;5020577;28;20076;-72
2022/06/24 06:52:57;;;;;;;205.23;187.20;;;22.10;94.30;;;;;;5028141;28;20161;-72
2022/06/24 06:55:24;;;;;;;189.30;173.43;;;22.10;94.30;;;;;;5022244;28;20528;-71
2022/06/24 06:57:51;;;;;;;182.85;166.57;;;22.00;94.20;;;;;;5021830;28;20094;-73
2022/06/24 07:00:18;;;;;;;229.73;209.93;;;22.00;94.30;;;;;;5024881;28;20129;-72
2022/06/24 07:02:45;;;;;;;179.02;163.77;;;22.00;94.30;;;;;;5019038;28;21022;-74
2022/06/24 07:05:14;;;;;;;174.43;159.52;;;22.00;94.40;;;;;;5021628;28;20050;-74
2022/06/24 07:07:41;;;;;;;148.68;136.32;;;22.00;94.50;;;;;;5022101;28;20137;-72
2022/06/24 07:10:08;;;;;;;149.43;137.02;;;22.00;94.50;;;;;;5020600;28;20519;-74
2022/06/24 07:12:35;;;;;;;155.38;142.57;;;22.10;94.60;;;;;;5019087;28;20170;-72
2022/06/24 07:15:02;;;;;;;152.93;140.23;;;22.10;94.70;;;;;;5029444;28;20052;-72
2022/06/24 07:17:28;;;;;;;158.23;144.93;;;22.10;94.70;;;;;;5029474;28;20144;-74
2022/06/24 07:19:55;;;;;;;184.55;169.10;;;22.20;94.90;;;;;;5023909;28;20059;-74
2022/06/24 07:22:24;;;;;;;199.20;182.13;;;22.20;94.90;;;;;;5028637;28;20101;-75
2022/06/24 07:24:51;;;;;;;157.35;144.07;;;22.20;94.90;;;;;;4974997;28;20141;-73
2022/06/24 07:27:18;;;;;;;171.05;156.45;;;22.20;95.00;;;;;;5020733;28;20055;-74
2022/06/24 07:29:45;;;;;;;176.48;161.50;;;22.30;95.10;;;;;;5022738;28;20050;-73
2022/06/24 07:32:13;;;;;;;182.35;166.70;;;22.30;95.10;;;;;;5028098;28;20045;-72
2022/06/24 07:34:40;;;;;;;169.77;155.68;;;22.20;95.00;;;;;;5023772;28;20054;-74
2022/06/24 07:37:07;;;;;;;172.32;157.93;;;22.30;94.90;;;;;;5019482;28;20105;-74
2022/06/24 07:39:36;;;;;;;166.85;152.95;;;22.30;94.90;;;;;;5019345;28;20594;-74
2022/06/24 07:42:04;;;;;;;184.68;168.93;;;22.30;95.10;;;;;;5018906;28;20050;-74
2022/06/24 07:44:30;;;;;;;161.57;147.85;;;22.30;95.30;;;;;;5032741;28;20057;-73
2022/06/24 07:46:59;;;;;;;168.57;154.57;;;22.30;95.30;;;;;;5029555;28;20149;-73
2022/06/24 07:49:26;;;;;;;186.82;171.30;;;22.30;95.40;;;;;;5030155;28;20782;-73
2022/06/24 07:51:53;;;;;;;186.38;170.68;;;22.30;95.50;;;;;;5030766;28;20050;-73
2022/06/24 07:54:20;;;;;;;168.82;155.05;;;22.30;95.60;;;;;;5027905;28;20054;-72
2022/06/24 07:56:59;;;;;;;174.02;159.80;;;22.30;95.60;;;;;;5032429;28;20054;-75
2022/06/24 07:59:27;;;;;;;157.73;144.57;;;22.30;95.60;;;;;;5031611;28;20038;-76
2022/06/24 08:01:55;;;;;;;157.75;145.10;;;22.30;95.60;;;;;;5026070;28;20050;-73
2022/06/24 08:04:23;;;;;;;166.80;153.40;;;22.40;95.70;;;;;;5021823;28;20330;-73
2022/06/24 08:06:52;;;;;;;157.07;144.15;;;22.40;95.70;;;;;;5029178;28;20046;-73
2022/06/24 08:09:20;;;;;;;152.43;139.82;;;22.40;95.70;;;;;;5023930;28;20070;-73
2022/06/24 08:11:49;;;;;;;175.02;160.32;;;22.40;95.90;;;;;;5023325;28;20060;-72
2022/06/24 08:14:16;;;;;;;149.77;137.88;;;22.40;96.00;;;;;;5018017;28;20074;-72
2022/06/24 08:16:43;;;;;;;161.20;148.15;;;22.30;95.90;;;;;;5031880;28;20101;-73
2022/06/24 08:19:11;;;;;;;157.70;144.80;;;22.30;96.00;;;;;;5027941;28;20141;-73
2022/06/24 08:21:38;;;;;;;156.70;144.00;;;22.20;96.00;;;;;;5031204;28;20054;-73
2022/06/24 08:24:06;;;;;;;155.30;142.70;;;22.20;96.00;;;;;;5027284;28;20142;-74
2022/06/24 08:26:34;;;;;;;156.57;143.57;;;22.20;96.20;;;;;;5026700;28;20054;-74
2022/06/24 08:29:02;;;;;;;171.40;157.05;;;22.20;96.30;;;;;;5021653;28;20085;-73
2022/06/24 08:31:29;;;;;;;178.48;163.65;;;22.20;96.40;;;;;;5020970;28;20492;-74
2022/06/24 08:33:56;;;;;;;158.88;145.60;;;22.20;96.40;;;;;;5024467;28;20112;-74
2022/06/24 08:36:26;;;;;;;156.65;143.75;;;22.20;96.40;;;;;;4961008;28;1891852;-74
2022/06/24 08:38:53;;;;;;;160.68;147.32;;;22.20;96.70;;;;;;5032776;28;20108;-73
2022/06/24 08:41:22;;;;;;;155.55;142.90;;;22.20;96.60;;;;;;5024163;28;20045;-73
2022/06/24 08:43:51;;;;;;;153.55;140.52;;;22.10;96.70;;;;;;5023426;28;20061;-73
2022/06/24 08:46:20;;;;;;;159.27;146.07;;;22.10;96.80;;;;;;5021749;28;20050;-73
2022/06/24 08:48:48;;;;;;;156.43;143.93;;;22.20;96.90;;;;;;5014977;28;20405;-73
2022/06/24 08:51:15;;;;;;;162.95;149.75;;;22.20;96.90;;;;;;5022793;28;20137;-73
2022/06/24 08:53:44;;;;;;;157.95;145.35;;;22.20;97.00;;;;;;5034269;28;20058;-73
2022/06/24 08:56:11;;;;;;;160.57;147.88;;;22.20;96.90;;;;;;5032380;28;20046;-73
2022/06/24 08:58:38;;;;;;;165.70;152.20;;;22.20;97.10;;;;;;5032117;28;20045;-73
2022/06/24 09:01:05;;;;;;;159.77;146.82;;;22.20;96.80;;;;;;5032845;28;20073;-73
2022/06/24 09:03:33;;;;;;;155.50;142.68;;;22.10;96.80;;;;;;5034386;28;20049;-73
2022/06/24 09:06:10;;;;;;;153.43;141.30;;;22.10;96.90;;;;;;5034064;28;20057;-73
2022/06/24 09:08:37;;;;;;;155.32;142.95;;;22.10;96.90;;;;;;5033690;28;20549;-73
2022/06/24 09:11:08;;;;;;;159.00;146.15;;;22.10;97.00;;;;;;5032868;28;20077;-73
2022/06/24 09:13:42;;;;;;;150.48;138.57;;;22.10;97.00;;;;;;5032211;28;20530;-73
2022/06/24 09:16:09;;;;;;;;;;;22.10;97.10;;;;;;5032988;28;20058;-73
2022/06/24 09:18:38;;;;;;;146.52;134.63;;;22.00;96.70;;;;;;5033251;28;20393;-73
2022/06/24 09:21:05;;;;;;;149.05;137.27;;;22.00;97.00;;;;;;5031445;28;20093;-72
2022/06/24 09:27:35;;;;;;;145.40;133.70;;;22.00;96.90;;;;;;5031349;28;20776;-73
2022/06/24 09:30:02;;;;;;;148.05;136.15;;;22.00;96.80;;;;;;5031620;28;20128;-73
2022/06/24 09:32:29;;;;;;;145.63;133.60;;;21.90;96.60;;;;;;5030600;28;20054;-73
2022/06/24 09:35:04;;;;;;;147.55;135.85;;;21.70;96.60;;;;;;5030372;28;20060;-71
2022/06/24 09:37:35;;;;;;;145.48;133.43;;;21.70;96.50;;;;;;5030111;28;20038;-72
2022/06/24 09:40:15;;;;;;;143.52;131.82;;;21.50;96.50;;;;;;5031558;28;20046;-71
2022/06/24 09:42:42;;;;;;;145.40;133.50;;;21.40;96.50;;;;;;5027766;28;20056;-72
2022/06/24 09:45:10;;;;;;;141.90;130.35;;;21.20;96.60;;;;;;5031167;28;20490;-73
2022/06/24 09:47:39;;;;;;;143.80;131.88;;;21.10;96.70;;;;;;5028448;28;20077;-74
2022/06/24 09:50:12;;;;;;;151.32;139.07;;;20.90;96.90;;;;;;5029800;28;20077;-74
2022/06/24 09:52:40;;;;;;;147.32;135.02;;;20.90;97.00;;;;;;5028998;28;20058;-75
2022/06/24 09:55:08;;;;;;;143.00;131.07;;;20.80;97.00;;;;;;5029925;28;20049;-75
2022/06/24 09:57:35;;;;;;;145.35;133.40;;;20.70;97.10;;;;;;4959140;28;20042;-75
2022/06/24 10:02:50;;;;;;;141.82;129.82;;;20.60;97.10;;;;;;5031998;28;20061;-75
2022/06/24 10:05:20;;;;;;;143.85;131.80;;;20.50;97.20;;;;;;5032359;28;20054;-74
2022/06/24 10:07:48;;;;;;;141.55;129.65;;;20.50;97.20;;;;;;5029790;28;20108;-74
2022/06/24 10:10:17;;;;;;;144.07;132.18;;;20.40;97.20;;;;;;5031064;28;20468;-73
2022/06/24 10:12:49;;;;;;;146.10;133.70;;;20.30;97.20;;;;;;5030984;28;20049;-73
2022/06/24 10:15:18;;;;;;;141.48;129.57;;;20.30;97.30;;;;;;5032544;28;20053;-74
2022/06/24 10:17:46;;;;;;;156.52;140.13;;;20.20;97.40;;;;;;5000005;28;20101;-74
2022/06/24 10:20:14;;;;;;;143.85;131.82;;;20.20;97.40;;;;;;5042276;28;20081;-75
2022/06/24 10:22:45;;;;;;;144.95;132.57;;;20.20;97.50;;;;;;5027921;28;20137;-74
2022/06/24 10:25:16;;;;;;;146.15;133.75;;;20.20;97.60;;;;;;5031259;28;20112;-75
2022/06/24 10:28:06;;;;;;;148.02;135.82;;;20.20;97.60;;;;;;5030742;28;20123;-74
2022/06/24 10:30:57;;;;;;;144.23;131.80;;;20.20;97.60;;;;;;5030627;28;20054;-75
2022/06/24 10:33:27;;;;;;;147.88;135.48;;;20.20;97.60;;;;;;5027598;28;20054;-75
2022/06/24 10:35:56;;;;;;;158.88;145.02;;;20.20;97.60;;;;;;5024056;28;20152;-75
2022/06/24 10:38:26;;;;;;;158.10;144.45;;;20.20;97.70;;;;;;5020056;28;20054;-75
2022/06/24 10:40:53;;;;;;;152.02;138.77;;;20.20;97.70;;;;;;5017161;28;20137;-76
2022/06/24 10:43:40;;;;;;;153.30;139.95;;;20.20;97.70;;;;;;5025611;28;20051;-76
2022/06/24 10:46:20;;;;;;;155.75;142.15;;;20.20;97.60;;;;;;5018952;28;20070;-75
2022/06/24 10:49:03;;;;;;;167.57;152.77;;;20.20;97.70;;;;;;5028639;28;20061;-77
2022/06/24 10:51:34;;;;;;;163.63;148.98;;;20.20;97.70;;;;;;5024567;28;20556;-77
2022/06/24 10:54:15;;;;;;;201.85;183.90;;;20.20;97.80;;;;;;5026560;28;20053;-77
2022/06/24 10:56:45;;;;;;;160.43;146.73;;;20.20;97.80;;;;;;5027949;28;20102;-77
2022/06/24 10:59:13;;;;;;;147.77;135.68;;;20.20;97.80;;;;;;5026436;28;20065;-76
2022/06/24 11:01:44;;;;;;;140.38;128.65;;;20.30;97.80;;;;;;5030784;28;20038;-76
2022/06/24 11:04:15;;;;;;;141.93;130.13;;;20.30;97.90;;;;;;5033552;28;20042;-77
2022/06/24 11:07:10;;;;;;;144.38;132.73;;;20.30;97.80;;;;;;5033191;28;20057;-77
2022/06/24 11:09:39;;;;;;;145.27;133.38;;;20.30;97.70;;;;;;5033741;28;20125;-73
2022/06/24 11:12:06;;;;;;;150.55;138.30;;;20.30;97.80;;;;;;5034735;28;20057;-73
2022/06/24 11:14:34;;;;;;;150.02;137.85;;;20.30;97.70;;;;;;5030752;28;20101;-72
2022/06/24 11:17:08;;;;;;;155.80;141.50;;;20.30;97.90;;;;;;5024356;28;20145;-73
2022/06/24 11:19:40;;;;;;;146.32;134.45;;;20.40;97.80;;;;;;5009805;28;20061;-73
2022/06/24 11:22:07;;;;;;;151.38;138.88;;;20.40;97.90;;;;;;5024764;28;20058;-76
2022/06/24 11:24:35;;;;;;;150.65;137.93;;;20.40;97.80;;;;;;5025434;28;20046;-75
2022/06/24 11:27:08;;;;;;;154.55;141.27;;;20.40;97.70;;;;;;5029528;28;20145;-74
2022/06/24 11:29:57;;;;;;;145.30;133.30;;;20.40;97.80;;;;;;5032615;28;20050;-75
2022/06/24 11:32:25;;;;;;;151.88;138.88;;;20.50;97.70;;;;;;5028046;28;20050;-78
2022/06/24 11:34:52;;;;;;;148.30;135.73;;;20.50;97.90;;;;;;5023344;28;20058;-77
2022/06/24 11:37:22;;;;;;;154.52;141.73;;;20.50;97.70;;;;;;5025155;28;20050;-76
2022/06/24 11:39:53;;;;;;;151.45;139.20;;;20.60;97.70;;;;;;5023119;28;20064;-77
2022/06/24 11:42:22;;;;;;;162.38;147.93;;;20.70;97.80;;;;;;5020486;28;20109;-74
2022/06/24 11:44:51;;;;;;;162.07;148.82;;;20.70;97.90;;;;;;5022519;28;20050;-75
2022/06/24 11:47:30;;;;;;;156.85;143.88;;;20.80;97.90;;;;;;5025015;28;20054;-74
2022/06/24 11:49:57;;;;;;;154.52;141.73;;;20.90;97.50;;;;;;5033853;28;20046;-74
2022/06/24 11:52:24;;;;;;;168.05;154.50;;;20.90;97.70;;;;;;5028753;28;20129;-73
2022/06/24 11:54:51;;;;;;;160.25;147.65;;;21.00;97.70;;;;;;5024669;28;20141;-74
2022/06/24 11:57:21;;;;;;;157.57;144.35;;;21.00;97.70;;;;;;5021403;28;20058;-73
2022/06/24 11:59:49;;;;;;;158.68;145.88;;;21.10;97.70;;;;;;5022620;28;20046;-75
2022/06/24 12:02:17;;;;;;;154.65;142.10;;;21.10;97.90;;;;;;5033093;28;20081;-75
2022/06/24 12:04:47;;;;;;;151.30;139.10;;;21.20;97.90;;;;;;5033410;28;20053;-75
2022/06/24 12:07:15;;;;;;;157.85;144.95;;;21.20;97.70;;;;;;5021100;28;20169;-74
2022/06/24 12:09:42;;;;;;;162.30;148.70;;;21.30;97.50;;;;;;5018025;28;20077;-75
2022/06/24 12:12:10;;;;;;;156.40;143.50;;;21.30;97.40;;;;;;5031436;28;20460;-75
2022/06/24 12:14:38;;;;;;;157.10;143.80;;;21.30;97.40;;;;;;5031880;28;20346;-74
2022/06/24 12:17:08;;;;;;;163.57;150.32;;;21.40;97.30;;;;;;5005416;28;20074;-74
2022/06/24 12:19:37;;;;;;;157.75;144.45;;;21.40;97.40;;;;;;5018532;28;20505;-75
2022/06/24 12:22:07;;;;;;;158.38;145.23;;;21.50;97.50;;;;;;4996656;28;20046;-75
2022/06/24 12:24:34;;;;;;;156.68;143.63;;;21.50;97.20;;;;;;5017386;28;20431;-77
2022/06/24 12:27:04;;;;;;;164.15;150.65;;;21.50;97.10;;;;;;5030583;28;20586;-75
2022/06/24 12:29:32;;;;;;;160.32;147.05;;;21.60;97.10;;;;;;5027717;28;20555;-80